createdAt,value
2019-05-12T00:03:37.813Z,44.72
2019-05-12T00:09:02.752Z,44.27
2019-05-12T00:11:41.750Z,44.31
2019-05-12T00:14:13.270Z,44.33
2019-05-12T00:16:43.984Z,44.21
2019-05-12T00:19:33.969Z,44.06
2019-05-12T00:24:47.968Z,44.07
2019-05-12T00:32:57.672Z,44.78
2019-05-12T00:40:51.010Z,44.59
2019-05-12T00:43:22.219Z,44.38
2019-05-12T00:46:12.234Z,43.65
2019-05-12T00:48:44.636Z,44.32
2019-05-12T00:51:15.509Z,44.32
2019-05-12T00:54:28.385Z,44.10
2019-05-12T01:03:02.832Z,44.67
2019-05-12T01:06:13.963Z,44.64
2019-05-12T01:09:17.679Z,44.38
2019-05-12T01:12:07.809Z,44.45
2019-05-12T01:14:40.296Z,45.00
2019-05-12T01:17:11.192Z,45.16
2019-05-12T01:19:41.301Z,45.41
2019-05-12T01:25:03.464Z,45.57
2019-05-12T01:27:33.682Z,45.85
2019-05-12T01:30:08.736Z,46.16
2019-05-12T01:35:31.755Z,45.90
2019-05-12T01:38:03.541Z,45.90
2019-05-12T01:40:34.477Z,46.21
2019-05-12T01:43:08.477Z,46.06
2019-05-12T01:45:38.827Z,46.16
2019-05-12T01:48:09.923Z,45.99
2019-05-12T01:50:41.859Z,46.21
2019-05-12T01:53:31.784Z,45.47
2019-05-12T01:56:42.862Z,45.47
2019-05-12T01:59:32.903Z,45.84
2019-05-12T02:02:05.284Z,45.45
2019-05-12T02:04:54.942Z,45.14
2019-05-12T02:13:27.601Z,45.82
2019-05-12T02:15:48.441Z,46.11
2019-05-12T02:18:58.913Z,46.14
2019-05-12T02:21:32.335Z,45.89
2019-05-12T02:30:50.176Z,45.53
2019-05-12T02:33:27.830Z,45.60
2019-05-12T02:36:07.258Z,45.41
2019-05-12T02:38:40.349Z,45.27
2019-05-12T02:41:15.979Z,45.39
2019-05-12T02:43:55.120Z,45.20
2019-05-12T02:46:25.721Z,44.92
2019-05-12T02:48:57.395Z,43.95
2019-05-12T02:51:47.162Z,43.78
2019-05-12T02:54:19.019Z,43.69
2019-05-12T02:56:50.828Z,43.72
2019-05-12T02:59:25.249Z,43.64
2019-05-12T03:01:56.167Z,43.25
2019-05-12T03:04:46.794Z,43.60
2019-05-12T03:07:17.659Z,43.60
2019-05-12T03:12:44.888Z,44.12
2019-05-12T03:15:36.519Z,43.95
2019-05-12T03:18:46.342Z,43.98
2019-05-12T03:21:50.153Z,44.46
2019-05-12T03:24:21.022Z,44.58
2019-05-12T03:26:55.329Z,45.17
2019-05-12T03:29:45.703Z,45.55
2019-05-12T03:32:28.743Z,44.71
2019-05-12T03:35:00.684Z,44.71
2019-05-12T03:37:31.632Z,44.88
2019-05-12T03:43:15.084Z,44.55
2019-05-12T03:45:46.881Z,44.65
2019-05-12T03:48:18.743Z,44.66
2019-05-12T03:50:54.110Z,44.41
2019-05-12T03:56:55.502Z,44.26
2019-05-12T03:59:25.531Z,44.17
2019-05-12T04:01:57.901Z,44.04
2019-05-12T04:04:30.707Z,43.83
2019-05-12T04:07:05.201Z,43.77
2019-05-12T04:13:04.457Z,43.40
2019-05-12T04:15:55.693Z,43.16
2019-05-12T04:19:05.015Z,42.72
2019-05-12T04:21:45.785Z,42.45
2019-05-12T04:24:27.074Z,41.75
2019-05-12T04:33:15.523Z,40.03
2019-05-12T04:35:47.283Z,39.15
2019-05-12T04:38:18.284Z,38.29
2019-05-12T04:40:49.910Z,38.02
2019-05-12T04:43:40.608Z,37.94
2019-05-12T04:46:14.729Z,37.23
2019-05-12T04:48:47.635Z,36.54
2019-05-12T04:51:26.023Z,36.51
2019-05-12T04:53:56.435Z,36.21
2019-05-12T04:56:27.471Z,35.75
2019-05-12T04:58:59.562Z,35.41
2019-05-12T05:01:33.739Z,35.35
2019-05-12T05:04:05.850Z,34.98
2019-05-12T05:06:37.885Z,34.81
2019-05-12T05:09:09.510Z,34.56
2019-05-12T05:11:40.472Z,34.53
2019-05-12T05:14:14.238Z,34.59
2019-05-12T05:16:45.527Z,34.80
2019-05-12T05:19:30.798Z,34.57
2019-05-12T05:22:13.702Z,34.10
2019-05-12T05:28:34.025Z,33.24
2019-05-12T05:31:25.115Z,33.31
2019-05-12T05:33:56.149Z,33.76
2019-05-12T05:36:26.969Z,34.35
2019-05-12T05:39:01.818Z,34.35
2019-05-12T05:41:34.546Z,33.82
2019-05-12T05:44:05.688Z,33.48
2019-05-12T05:46:43.847Z,33.65
2019-05-12T05:49:28.948Z,33.33
2019-05-12T05:52:03.517Z,32.81
2019-05-12T05:55:19.908Z,33.22
2019-05-12T05:57:48.857Z,32.79
2019-05-12T06:01:03.815Z,32.81
2019-05-12T06:03:58.038Z,33.16
2019-05-12T06:06:50.583Z,33.25
2019-05-12T06:09:35.428Z,32.90
2019-05-12T06:12:09.971Z,33.39
2019-05-12T06:14:48.804Z,33.11
2019-05-12T06:17:16.911Z,33.45
2019-05-12T06:19:47.959Z,33.78
2019-05-12T06:22:19.761Z,33.93
2019-05-12T06:24:56.964Z,33.88
2019-05-12T06:27:44.447Z,32.92
2019-05-12T06:30:37.482Z,32.59
2019-05-12T06:33:07.135Z,32.60
2019-05-12T06:41:33.837Z,31.97
2019-05-12T06:44:08.850Z,31.63
2019-05-12T06:47:03.537Z,31.47
2019-05-12T06:49:33.685Z,31.95
2019-05-12T06:54:51.410Z,32.36
2019-05-12T06:57:25.350Z,31.89
2019-05-12T07:03:04.194Z,32.08
2019-05-12T07:09:09.984Z,31.24
2019-05-12T07:12:03.658Z,31.57
2019-05-12T07:17:24.836Z,33.67
2019-05-12T07:26:28.568Z,33.37
2019-05-12T07:29:18.902Z,33.00
2019-05-12T07:32:19.764Z,31.32
2019-05-12T07:34:45.213Z,30.80
2019-05-12T07:37:16.136Z,30.67
2019-05-12T07:39:49.442Z,30.27
2019-05-12T07:45:40.944Z,29.36
2019-05-12T07:48:33.364Z,28.83
2019-05-12T07:54:14.378Z,28.97
2019-05-12T07:57:27.167Z,28.97
2019-05-12T07:59:54.019Z,28.64
2019-05-12T08:03:18.732Z,28.20
2019-05-12T08:06:00.310Z,28.21
2019-05-12T08:08:29.132Z,29.68
2019-05-12T08:13:43.880Z,31.06
2019-05-12T08:16:19.463Z,30.91
2019-05-12T08:21:34.892Z,30.05
2019-05-12T08:24:05.135Z,29.55
2019-05-12T08:26:36.399Z,28.43
2019-05-12T08:32:16.019Z,28.33
2019-05-12T08:34:43.834Z,28.18
2019-05-12T08:45:39.606Z,29.19
2019-05-12T08:48:30.525Z,29.97
2019-05-12T08:51:05.381Z,29.87
2019-05-12T08:56:26.175Z,30.10
2019-05-12T09:02:46.123Z,31.29
2019-05-12T09:05:33.689Z,31.42
2019-05-12T09:11:28.272Z,30.83
2019-05-12T09:17:17.664Z,30.79
2019-05-12T09:22:34.315Z,30.44
2019-05-12T09:25:08.342Z,30.03
2019-05-12T09:30:45.846Z,30.74
2019-05-12T09:33:15.480Z,29.91
2019-05-12T09:36:11.394Z,29.73
2019-05-12T09:39:03.179Z,28.61
2019-05-12T09:44:54.065Z,28.84
2019-05-12T09:48:09.330Z,28.46
2019-05-12T09:53:01.008Z,28.36
2019-05-12T09:55:53.944Z,27.67
2019-05-12T10:01:39.437Z,26.87
2019-05-12T10:04:27.474Z,25.98
2019-05-12T10:09:43.930Z,26.14
2019-05-12T10:12:29.573Z,26.47
2019-05-12T10:17:54.032Z,27.90
2019-05-12T10:20:35.209Z,27.59
2019-05-12T10:26:11.547Z,27.31
2019-05-12T10:32:28.612Z,26.13
2019-05-12T10:37:47.348Z,24.96
2019-05-12T10:45:53.858Z,23.04
2019-05-12T10:48:44.357Z,23.55
2019-05-12T10:51:17.641Z,23.36
2019-05-12T10:54:12.576Z,23.86
2019-05-12T10:57:18.934Z,24.27
2019-05-12T11:03:10.313Z,24.19
2019-05-12T11:05:36.212Z,23.90
2019-05-12T11:08:20.627Z,23.70
2019-05-12T11:13:26.738Z,22.92
2019-05-12T11:16:22.845Z,22.44
2019-05-12T11:19:05.643Z,22.67
2019-05-12T11:24:27.857Z,22.95
2019-05-12T11:30:08.669Z,22.98
2019-05-12T11:32:59.901Z,22.64
2019-05-12T11:38:16.622Z,21.98
2019-05-12T11:41:16.110Z,21.54
2019-05-12T11:43:25.080Z,21.19
2019-05-12T11:49:04.369Z,20.58
2019-05-12T11:55:00.483Z,20.76
2019-05-12T11:57:51.377Z,20.88
2019-05-12T12:03:28.088Z,21.44
2019-05-12T12:06:18.793Z,21.39
2019-05-12T12:14:17.243Z,20.78
2019-05-12T12:17:08.100Z,20.48
2019-05-12T12:19:59.044Z,20.15
2019-05-12T12:25:36.399Z,19.79
2019-05-12T12:34:02.170Z,19.24
2019-05-12T12:36:34.307Z,19.16
2019-05-12T12:42:24.190Z,19.24
2019-05-12T12:54:18.456Z,19.74
2019-05-12T12:59:42.918Z,19.14
2019-05-12T13:02:39.161Z,19.12
2019-05-12T13:05:19.390Z,18.96
2019-05-12T13:07:53.514Z,18.96
2019-05-12T13:13:17.976Z,18.79
2019-05-12T13:16:08.831Z,18.76
2019-05-12T13:21:53.249Z,18.82
2019-05-12T13:24:39.205Z,18.48
2019-05-12T13:27:45.638Z,18.48
2019-05-12T13:30:28.412Z,18.48
2019-05-12T13:33:00.281Z,18.05
2019-05-12T13:35:34.519Z,18.31
2019-05-12T13:38:06.427Z,17.91
2019-05-12T13:40:39.483Z,18.22
2019-05-12T13:46:06.544Z,19.53
2019-05-12T13:48:59.701Z,19.66
2019-05-12T13:51:33.277Z,19.89
2019-05-12T13:54:04.903Z,20.08
2019-05-12T13:56:36.748Z,19.11
2019-05-12T13:59:12.190Z,18.36
2019-05-12T14:02:03.185Z,18.49
2019-05-12T14:04:54.914Z,19.83
2019-05-12T14:07:39.150Z,19.83
2019-05-12T14:10:03.611Z,20.34
2019-05-12T14:12:38.966Z,20.27
2019-05-12T14:18:57.006Z,20.24
2019-05-12T14:21:42.479Z,20.44
2019-05-12T14:24:00.011Z,21.04
2019-05-12T14:26:33.366Z,20.98
2019-05-12T14:29:49.808Z,20.26
2019-05-12T14:32:40.675Z,20.09
2019-05-12T14:35:12.603Z,19.52
2019-05-12T14:38:19.285Z,18.95
2019-05-12T14:43:37.469Z,18.20
2019-05-12T14:46:10.526Z,18.19
2019-05-12T14:49:03.621Z,18.14
2019-05-12T14:52:17.081Z,18.16
2019-05-12T14:54:51.358Z,18.70
2019-05-12T15:01:06.955Z,19.58
2019-05-12T15:03:59.482Z,19.58
2019-05-12T15:06:31.339Z,19.19
2019-05-12T15:09:40.897Z,19.34
2019-05-12T15:12:15.160Z,19.71
2019-05-12T15:14:50.050Z,19.78
2019-05-12T15:17:26.416Z,20.23
2019-05-12T15:20:41.397Z,20.11
2019-05-12T15:29:29.103Z,19.59
2019-05-12T15:34:56.595Z,19.66
2019-05-12T15:37:35.017Z,20.02
2019-05-12T15:40:36.617Z,20.68
2019-05-12T15:43:27.804Z,20.86
2019-05-12T15:45:59.784Z,20.86
2019-05-12T15:48:34.035Z,20.96
2019-05-12T15:54:11.669Z,21.04
2019-05-12T15:56:41.401Z,21.46
2019-05-12T16:02:34.745Z,22.10
2019-05-12T16:05:30.852Z,21.18
2019-05-12T16:07:59.190Z,20.40
2019-05-12T16:10:31.010Z,19.57
2019-05-12T16:16:34.049Z,18.57
2019-05-12T16:28:38.583Z,18.89
2019-05-12T16:34:28.213Z,19.63
2019-05-12T16:45:39.775Z,19.72
2019-05-12T16:48:36.378Z,20.18
2019-05-12T16:55:12.075Z,18.51
2019-05-12T16:57:51.495Z,18.90
2019-05-12T17:00:17.493Z,18.79
2019-05-12T17:06:00.538Z,19.66
2019-05-12T17:08:34.485Z,19.33
2019-05-12T17:11:29.914Z,18.81
2019-05-12T17:17:10.945Z,18.78
2019-05-12T17:22:54.744Z,19.57
2019-05-12T17:28:24.412Z,19.93
2019-05-12T17:31:34.706Z,20.30
2019-05-12T17:37:00.507Z,20.65
2019-05-12T17:40:15.609Z,21.30
2019-05-12T17:45:59.551Z,21.82
2019-05-12T17:48:56.635Z,22.99
2019-05-12T17:51:34.310Z,23.59
2019-05-12T17:54:07.121Z,24.00
2019-05-12T17:56:43.736Z,24.23
2019-05-12T17:59:24.432Z,24.50
2019-05-12T18:02:15.052Z,24.64
2019-05-12T18:04:49.897Z,24.95
2019-05-12T18:10:54.844Z,25.25
2019-05-12T18:17:08.481Z,25.86
2019-05-12T18:20:07.493Z,26.33
2019-05-12T18:26:03.104Z,26.53
2019-05-12T18:28:33.413Z,26.81
2019-05-12T18:31:09.018Z,26.90
2019-05-12T18:36:34.105Z,27.45
2019-05-12T18:42:00.490Z,27.74
2019-05-12T18:47:31.920Z,28.29
2019-05-12T18:50:14.077Z,28.53
2019-05-12T18:53:31.872Z,28.75
2019-05-12T18:56:33.767Z,29.08
2019-05-12T18:59:11.622Z,29.39
2019-05-12T19:05:22.000Z,29.87
2019-05-12T19:10:30.138Z,30.93
2019-05-12T19:13:23.921Z,30.93
2019-05-12T19:16:02.419Z,30.73
2019-05-12T19:18:48.826Z,30.91
2019-05-12T19:21:39.757Z,31.10
2019-05-12T19:27:20.631Z,31.25
2019-05-12T19:30:31.032Z,31.53
2019-05-12T19:33:17.519Z,31.87
2019-05-12T19:36:24.135Z,31.87
2019-05-12T19:38:43.954Z,31.86
2019-05-12T19:51:19.994Z,31.90
2019-05-12T19:53:57.857Z,31.87
2019-05-12T20:00:06.234Z,32.18
2019-05-12T20:05:53.851Z,32.26
2019-05-12T20:08:46.832Z,32.44
2019-05-12T20:11:37.519Z,32.34
2019-05-12T20:14:59.238Z,32.76
2019-05-12T20:18:14.453Z,32.76
2019-05-12T20:21:06.576Z,32.73
2019-05-12T20:27:00.323Z,32.99
2019-05-12T20:35:49.273Z,32.96
2019-05-12T20:38:53.889Z,33.08
2019-05-12T20:42:00.489Z,33.22
2019-05-12T20:44:51.137Z,33.31
2019-05-12T20:47:53.235Z,33.56
2019-05-12T20:50:44.155Z,33.53
2019-05-12T20:53:31.757Z,33.66
2019-05-12T20:56:03.516Z,33.43
2019-05-12T21:02:18.829Z,33.47
2019-05-12T21:08:20.799Z,33.61
2019-05-12T21:10:54.192Z,33.69
2019-05-12T21:13:45.281Z,33.92
2019-05-12T21:16:54.100Z,34.06
2019-05-12T21:22:39.205Z,34.50
2019-05-12T21:25:12.768Z,34.68
2019-05-12T21:28:07.710Z,34.80
2019-05-12T21:30:34.122Z,34.90
2019-05-12T21:33:05.159Z,34.85
2019-05-12T21:35:42.903Z,35.04
2019-05-12T21:38:29.582Z,35.11
2019-05-12T21:41:21.833Z,35.14
2019-05-12T21:44:00.002Z,35.07
2019-05-12T21:47:10.548Z,35.19
2019-05-12T21:50:03.493Z,35.09
2019-05-12T21:56:03.366Z,35.07
2019-05-12T22:04:23.598Z,35.16
2019-05-12T22:16:43.315Z,35.98
2019-05-12T22:22:07.472Z,36.18
2019-05-12T22:27:31.333Z,36.34
2019-05-12T22:39:44.488Z,36.25
2019-05-12T22:45:18.181Z,37.03
2019-05-12T22:47:55.281Z,37.37
2019-05-12T22:50:27.325Z,37.41
2019-05-12T22:52:58.899Z,37.48
2019-05-12T22:55:32.511Z,37.49
2019-05-12T22:58:10.565Z,37.60
2019-05-12T23:00:39.098Z,37.57
2019-05-12T23:06:41.629Z,37.61
2019-05-12T23:17:13.677Z,37.54
2019-05-12T23:19:51.617Z,37.58
2019-05-12T23:22:37.528Z,37.59
2019-05-12T23:25:11.453Z,37.56
2019-05-12T23:27:44.291Z,37.65
2019-05-12T23:30:35.908Z,37.64
2019-05-12T23:33:35.308Z,37.46
2019-05-12T23:39:00.659Z,37.44
2019-05-12T23:42:05.006Z,37.45
2019-05-12T23:44:39.553Z,37.42
2019-05-12T23:47:11.368Z,37.43
2019-05-12T23:52:54.073Z,37.63
2019-05-12T23:58:36.631Z,37.35
